createdAt,value
2023-01-11T00:02:02.024Z,1.38
2023-01-11T00:04:30.664Z,1.10
2023-01-11T00:06:59.168Z,1.20
2023-01-11T00:09:27.433Z,1.25
2023-01-11T00:11:55.161Z,1.10
2023-01-11T00:14:22.139Z,1.42
2023-01-11T00:16:48.930Z,1.55
2023-01-11T00:19:15.559Z,1.38
2023-01-11T00:21:42.340Z,1.23
2023-01-11T00:24:09.104Z,1.25
2023-01-11T00:26:37.107Z,1.50
2023-01-11T00:29:03.852Z,1.10
2023-01-11T00:31:30.556Z,1.20
2023-01-11T00:33:57.413Z,1.60
2023-01-11T00:36:24.262Z,1.17
2023-01-11T00:38:55.443Z,1.42
2023-01-11T00:41:42.096Z,1.35
2023-01-11T00:44:29.817Z,1.40
2023-01-11T00:47:15.451Z,1.20
2023-01-11T00:49:43.000Z,1.42
2023-01-11T00:52:10.228Z,1.20
2023-01-11T00:54:37.209Z,1.00
2023-01-11T00:57:06.400Z,1.20
2023-01-11T00:59:34.512Z,1.48
2023-01-11T01:02:01.404Z,1.20
2023-01-11T01:04:28.207Z,1.23
2023-01-11T01:06:55.005Z,1.33
2023-01-11T01:09:21.930Z,1.23
2023-01-11T01:11:48.669Z,1.20
2023-01-11T01:14:31.099Z,1.02
2023-01-11T01:17:02.267Z,1.02
2023-01-11T01:19:30.018Z,1.02
2023-01-11T01:21:58.263Z,0.93
2023-01-11T01:24:28.187Z,1.08
2023-01-11T01:26:55.362Z,0.80
2023-01-11T01:29:22.078Z,0.90
2023-01-11T01:31:48.883Z,0.95
2023-01-11T01:34:17.003Z,0.82
2023-01-11T01:36:43.898Z,0.93
2023-01-11T01:39:11.921Z,1.13
2023-01-11T01:41:39.053Z,1.02
2023-01-11T01:44:44.480Z,0.85
2023-01-11T01:47:12.575Z,1.08
2023-01-11T01:49:42.291Z,1.00
2023-01-11T01:52:12.155Z,0.80
2023-01-11T01:54:45.109Z,0.50
2023-01-11T01:57:16.304Z,0.80
2023-01-11T01:59:43.194Z,0.70
2023-01-11T02:02:11.396Z,0.52
2023-01-11T02:04:43.690Z,0.80
2023-01-11T02:07:14.284Z,0.90
2023-01-11T02:09:45.430Z,0.80
2023-01-11T02:12:15.240Z,0.82
2023-01-11T02:14:44.840Z,0.73
2023-01-11T02:17:12.057Z,0.88
2023-01-11T02:19:55.436Z,0.55
2023-01-11T02:22:58.117Z,0.63
2023-01-11T02:25:58.279Z,0.50
2023-01-11T02:28:30.962Z,0.38
2023-01-11T02:31:05.735Z,0.40
2023-01-11T02:33:41.104Z,0.60
2023-01-11T02:36:17.696Z,0.80
2023-01-11T02:38:50.329Z,0.60
2023-01-11T02:41:22.890Z,0.40
2023-01-11T02:44:18.222Z,0.43
2023-01-11T02:46:48.735Z,0.50
2023-01-11T02:49:26.756Z,0.55
2023-01-11T02:51:56.654Z,0.52
2023-01-11T02:54:27.082Z,0.55
2023-01-11T02:56:58.498Z,0.50
2023-01-11T02:59:31.342Z,0.50
2023-01-11T03:01:59.672Z,0.60
2023-01-11T03:04:28.540Z,0.52
2023-01-11T03:07:08.690Z,0.60
2023-01-11T03:09:44.796Z,0.63
2023-01-11T03:12:47.640Z,0.50
2023-01-11T03:15:33.866Z,0.52
2023-01-11T03:18:14.212Z,0.70
2023-01-11T03:20:47.238Z,0.55
2023-01-11T03:23:21.926Z,0.80
2023-01-11T03:25:59.000Z,0.50
2023-01-11T03:28:35.318Z,0.70
2023-01-11T03:31:08.596Z,0.70
2023-01-11T03:33:42.187Z,0.65
2023-01-11T03:36:14.424Z,0.70
2023-01-11T03:38:50.720Z,0.80
2023-01-11T03:41:22.625Z,0.70
2023-01-11T03:43:52.796Z,0.80
2023-01-11T03:46:24.047Z,0.70
2023-01-11T03:48:54.794Z,0.75
2023-01-11T03:51:27.323Z,0.52
2023-01-11T03:53:58.180Z,0.52
2023-01-11T03:56:32.537Z,0.70
2023-01-11T03:58:59.347Z,0.60
2023-01-11T04:01:27.729Z,0.38
2023-01-11T04:03:54.493Z,0.52
2023-01-11T04:06:22.332Z,0.32
2023-01-11T04:08:49.199Z,0.40
2023-01-11T04:11:15.917Z,0.60
2023-01-11T04:13:42.664Z,0.43
2023-01-11T04:16:09.352Z,0.40
2023-01-11T04:18:37.505Z,0.40
2023-01-11T04:21:04.744Z,0.50
2023-01-11T04:23:31.494Z,0.65
2023-01-11T04:25:58.139Z,0.52
2023-01-11T04:28:24.917Z,0.40
2023-01-11T04:30:51.701Z,0.40
2023-01-11T04:33:19.635Z,0.43
2023-01-11T04:35:48.096Z,0.40
2023-01-11T04:38:14.797Z,0.63
2023-01-11T04:40:41.741Z,0.50
2023-01-11T04:43:08.503Z,0.65
2023-01-11T04:45:35.225Z,0.80
2023-01-11T04:48:02.047Z,0.70
2023-01-11T04:50:28.819Z,0.70
2023-01-11T04:52:57.961Z,0.60
2023-01-11T04:55:24.683Z,0.90
2023-01-11T04:57:51.415Z,0.50
2023-01-11T05:00:18.784Z,0.50
2023-01-11T05:02:45.674Z,0.35
2023-01-11T05:05:12.574Z,0.63
2023-01-11T05:07:39.323Z,0.75
2023-01-11T05:10:08.630Z,0.60
2023-01-11T05:12:35.394Z,0.80
2023-01-11T05:15:02.218Z,1.08
2023-01-11T05:17:28.979Z,1.13
2023-01-11T05:19:55.733Z,1.13
2023-01-11T05:22:22.405Z,1.30
2023-01-11T05:24:49.262Z,1.30
2023-01-11T05:27:17.252Z,1.42
2023-01-11T05:29:44.298Z,1.50
2023-01-11T05:32:12.423Z,1.35
2023-01-11T05:34:39.295Z,1.20
2023-01-11T05:37:06.048Z,1.20
2023-01-11T05:39:32.742Z,1.52
2023-01-11T05:41:59.538Z,1.67
2023-01-11T05:44:46.583Z,1.45
2023-01-11T05:47:13.237Z,1.40
2023-01-11T05:49:40.044Z,1.30
2023-01-11T05:52:06.697Z,1.65
2023-01-11T05:54:33.450Z,1.33
2023-01-11T05:57:00.166Z,1.40
2023-01-11T05:59:32.027Z,1.38
2023-01-11T06:01:58.958Z,1.60
2023-01-11T06:04:26.128Z,1.48
2023-01-11T06:06:52.898Z,1.60
2023-01-11T06:09:19.669Z,1.70
2023-01-11T06:11:46.404Z,1.50
2023-01-11T06:14:13.306Z,1.58
2023-01-11T06:16:41.434Z,1.48
2023-01-11T06:19:11.371Z,1.45
2023-01-11T06:21:38.783Z,1.17
2023-01-11T06:24:06.058Z,0.90
2023-01-11T06:26:32.785Z,1.02
2023-01-11T06:28:59.573Z,1.15
2023-01-11T06:31:26.313Z,1.20
2023-01-11T06:33:54.424Z,1.00
2023-01-11T06:36:21.109Z,1.30
2023-01-11T06:38:47.885Z,1.20
2023-01-11T06:41:14.960Z,0.95
2023-01-11T06:43:42.407Z,0.60
2023-01-11T06:46:13.463Z,1.00
2023-01-11T06:48:40.513Z,0.90
2023-01-11T06:51:11.068Z,0.73
2023-01-11T06:53:38.444Z,0.68
2023-01-11T06:56:05.856Z,0.80
2023-01-11T06:58:32.699Z,1.00
2023-01-11T07:01:00.011Z,1.00
2023-01-11T07:03:27.410Z,0.85
2023-01-11T07:05:58.914Z,0.50
2023-01-11T07:08:27.462Z,0.55
2023-01-11T07:10:54.702Z,1.00
2023-01-11T07:13:21.652Z,0.90
2023-01-11T07:15:50.567Z,0.63
2023-01-11T07:18:18.720Z,0.90
2023-01-11T07:20:45.637Z,0.50
2023-01-11T07:23:12.493Z,0.90
2023-01-11T07:25:41.246Z,0.50
2023-01-11T07:28:08.989Z,0.70
2023-01-11T07:30:51.815Z,0.80
2023-01-11T07:33:23.653Z,1.00
2023-01-11T07:35:50.343Z,0.80
2023-01-11T07:38:17.133Z,0.73
2023-01-11T07:40:45.249Z,0.77
2023-01-11T07:43:18.393Z,0.80
2023-01-11T07:45:48.013Z,0.60
2023-01-11T07:48:16.572Z,0.85
2023-01-11T07:50:45.101Z,0.80
2023-01-11T07:53:13.194Z,0.60
2023-01-11T07:55:40.299Z,0.80
2023-01-11T07:58:10.771Z,0.77
2023-01-11T08:00:37.498Z,0.88
2023-01-11T08:03:04.491Z,0.80
2023-01-11T08:05:31.360Z,1.13
2023-01-11T08:07:58.389Z,1.20
2023-01-11T08:10:25.140Z,0.50
2023-01-11T08:13:10.354Z,0.88
2023-01-11T08:15:42.213Z,0.50
2023-01-11T08:18:09.715Z,0.90
2023-01-11T08:20:36.465Z,0.68
2023-01-11T08:23:04.588Z,0.80
2023-01-11T08:25:32.650Z,0.90
2023-01-11T08:28:00.983Z,0.75
2023-01-11T08:30:28.284Z,0.90
2023-01-11T08:32:57.728Z,0.50
2023-01-11T08:35:24.932Z,0.70
2023-01-11T08:37:51.603Z,0.40
2023-01-11T08:40:18.483Z,0.90
2023-01-11T08:42:45.181Z,0.90
2023-01-11T08:45:11.963Z,1.33
2023-01-11T08:47:38.735Z,1.02
2023-01-11T08:50:08.692Z,0.77
2023-01-11T08:52:35.500Z,0.73
2023-01-11T08:55:02.191Z,0.80
2023-01-11T08:57:28.932Z,0.40
2023-01-11T08:59:55.690Z,1.10
2023-01-11T09:02:22.569Z,0.57
2023-01-11T09:04:49.428Z,0.77
2023-01-11T09:07:22.903Z,0.88
2023-01-11T09:09:50.411Z,0.63
2023-01-11T09:12:17.166Z,0.70
2023-01-11T09:14:44.283Z,1.05
2023-01-11T09:17:11.045Z,0.65
2023-01-11T09:19:37.707Z,0.70
2023-01-11T09:22:04.380Z,0.70
2023-01-11T09:24:32.603Z,0.80
2023-01-11T09:26:59.984Z,0.68
2023-01-11T09:29:26.983Z,1.05
2023-01-11T09:31:53.881Z,1.17
2023-01-11T09:34:21.156Z,0.90
2023-01-11T09:36:48.995Z,1.10
2023-01-11T09:39:18.825Z,0.80
2023-01-11T09:42:11.250Z,0.80
2023-01-11T09:44:49.769Z,1.45
2023-01-11T09:47:21.959Z,1.30
2023-01-11T09:49:57.205Z,0.90
2023-01-11T09:52:29.287Z,0.82
2023-01-11T09:54:58.577Z,0.93
2023-01-11T09:57:38.237Z,0.80
2023-01-11T10:00:16.535Z,0.57
2023-01-11T10:03:00.272Z,1.00
2023-01-11T10:05:49.491Z,0.95
2023-01-11T10:18:29.209Z,0.38
2023-01-11T10:18:31.922Z,1.13
2023-01-11T10:20:35.062Z,0.68
2023-01-11T10:23:08.344Z,0.73
2023-01-11T10:25:47.939Z,1.70
2023-01-11T10:28:23.098Z,0.90
2023-01-11T10:30:58.635Z,0.77
2023-01-11T10:33:46.465Z,0.75
2023-01-11T10:36:21.026Z,1.58
2023-01-11T10:38:56.803Z,1.08
2023-01-11T10:41:38.497Z,0.65
2023-01-11T10:44:19.085Z,1.13
2023-01-11T10:46:51.127Z,0.50
2023-01-11T10:49:33.705Z,1.13
2023-01-11T10:52:13.985Z,1.10
2023-01-11T10:54:46.837Z,1.27
2023-01-11T10:57:23.112Z,0.80
2023-01-11T11:00:04.475Z,0.80
2023-01-11T11:02:53.933Z,1.40
2023-01-11T11:05:30.379Z,0.70
2023-01-11T11:08:01.775Z,1.55
2023-01-11T11:10:34.956Z,0.82
2023-01-11T11:13:11.312Z,0.50
2023-01-11T11:15:41.004Z,0.63
2023-01-11T11:18:10.053Z,1.08
2023-01-11T11:20:36.800Z,0.50
2023-01-11T11:23:03.686Z,0.80
2023-01-11T11:25:33.014Z,0.90
2023-01-11T11:28:03.742Z,1.10
2023-01-11T11:30:33.680Z,0.82
2023-01-11T11:33:03.663Z,0.75
2023-01-11T11:35:38.191Z,1.10
2023-01-11T11:38:05.402Z,0.60
2023-01-11T11:40:34.892Z,0.95
2023-01-11T11:43:18.148Z,1.00
2023-01-11T11:45:56.026Z,1.15
2023-01-11T11:48:24.499Z,0.52
2023-01-11T11:50:54.025Z,0.90
2023-01-11T11:53:27.500Z,1.10
2023-01-11T11:55:54.957Z,0.65
2023-01-11T11:58:25.165Z,0.88
2023-01-11T12:00:53.388Z,0.70
2023-01-11T12:03:25.761Z,0.88
2023-01-11T12:06:00.720Z,1.23
2023-01-11T12:08:29.550Z,1.15
2023-01-11T12:10:58.949Z,1.00
2023-01-11T12:13:30.936Z,0.82
2023-01-11T12:16:00.048Z,1.00
2023-01-11T12:18:30.523Z,0.93
2023-01-11T12:21:10.074Z,1.02
2023-01-11T12:23:36.867Z,1.30
2023-01-11T12:26:22.816Z,0.85
2023-01-11T12:29:12.562Z,1.00
2023-01-11T12:31:55.559Z,1.00
2023-01-11T12:34:36.496Z,1.45
2023-01-11T12:37:16.243Z,1.35
2023-01-11T12:39:50.034Z,0.85
2023-01-11T12:42:45.371Z,0.82
2023-01-11T12:45:21.139Z,0.90
2023-01-11T12:48:07.442Z,0.95
2023-01-11T12:50:42.536Z,1.30
2023-01-11T12:53:36.220Z,1.10
2023-01-11T12:56:31.581Z,0.50
2023-01-11T12:59:03.012Z,1.63
2023-01-11T13:01:48.869Z,0.82
2023-01-11T13:04:53.973Z,1.08
2023-01-11T13:07:33.871Z,0.75
2023-01-11T13:10:15.708Z,0.60
2023-01-11T13:12:49.575Z,0.73
2023-01-11T13:15:34.267Z,0.90
2023-01-11T13:18:12.544Z,0.73
2023-01-11T13:21:00.027Z,0.85
2023-01-11T13:23:36.394Z,0.82
2023-01-11T13:26:19.429Z,0.85
2023-01-11T13:28:51.607Z,2.13
2023-01-11T13:31:20.596Z,0.88
2023-01-11T13:33:53.744Z,1.30
2023-01-11T13:36:26.131Z,0.70
2023-01-11T13:38:59.264Z,0.77
2023-01-11T13:41:32.115Z,0.80
2023-01-11T13:44:05.736Z,0.73
2023-01-11T13:46:46.021Z,0.95
2023-01-11T13:49:22.251Z,1.52
2023-01-11T13:51:55.730Z,1.10
2023-01-11T13:54:27.190Z,1.02
2023-01-11T13:57:04.719Z,0.88
2023-01-11T13:59:35.212Z,0.77
2023-01-11T14:02:09.080Z,0.90
2023-01-11T14:04:45.831Z,0.73
2023-01-11T14:07:22.002Z,0.95
2023-01-11T14:10:20.303Z,0.88
2023-01-11T14:13:04.371Z,1.17
2023-01-11T14:15:38.092Z,0.90
2023-01-11T14:18:31.153Z,0.70
2023-01-11T14:21:06.734Z,0.90
2023-01-11T14:23:43.266Z,0.63
2023-01-11T14:26:42.579Z,1.10
2023-01-11T14:29:30.720Z,1.02
2023-01-11T14:32:15.950Z,1.13
2023-01-11T14:35:11.993Z,1.15
2023-01-11T14:38:04.791Z,0.75
2023-01-11T14:40:48.327Z,1.13
2023-01-11T14:43:32.874Z,1.02
2023-01-11T14:46:25.552Z,0.90
2023-01-11T14:49:03.853Z,1.10
2023-01-11T14:51:37.155Z,1.35
2023-01-11T14:54:08.563Z,1.08
2023-01-11T14:56:51.724Z,1.10
2023-01-11T14:59:25.079Z,1.52
2023-01-11T15:02:13.903Z,1.20
2023-01-11T15:05:09.067Z,1.08
2023-01-11T15:07:41.844Z,1.00
2023-01-11T15:10:45.163Z,1.30
2023-01-11T15:13:15.489Z,1.20
2023-01-11T15:16:00.753Z,0.93
2023-01-11T15:18:30.084Z,0.88
2023-01-11T15:21:02.905Z,0.80
2023-01-11T15:23:35.710Z,1.25
2023-01-11T15:26:05.305Z,0.90
2023-01-11T15:28:47.826Z,1.17
2023-01-11T15:31:36.379Z,1.10
2023-01-11T15:34:18.478Z,1.38
2023-01-11T15:37:08.400Z,1.02
2023-01-11T15:39:40.900Z,1.02
2023-01-11T15:42:45.729Z,1.05
2023-01-11T15:46:04.242Z,0.90
2023-01-11T15:48:49.126Z,1.50
2023-01-11T15:51:34.819Z,0.60
2023-01-11T15:54:22.577Z,1.00
2023-01-11T15:57:14.597Z,1.30
2023-01-11T16:00:06.601Z,1.30
2023-01-11T16:03:24.240Z,2.92
2023-01-11T16:05:57.626Z,4.72
2023-01-11T16:08:32.521Z,10.63
2023-01-11T16:11:13.708Z,5.70
2023-01-11T16:13:53.722Z,4.38
2023-01-11T16:16:23.678Z,3.17
2023-01-11T16:18:54.703Z,2.38
2023-01-11T16:21:30.850Z,3.42
2023-01-11T16:23:59.431Z,5.80
2023-01-11T16:26:26.427Z,3.60
2023-01-11T16:28:56.770Z,3.05
2023-01-11T16:31:23.975Z,2.15
2023-01-11T16:33:52.423Z,1.67
2023-01-11T16:36:22.676Z,1.60
2023-01-11T16:38:56.900Z,1.40
2023-01-11T16:41:29.165Z,3.22
2023-01-11T16:44:00.456Z,2.55
2023-01-11T16:47:06.775Z,3.00
2023-01-11T16:49:34.187Z,3.08
2023-01-11T16:52:24.028Z,2.42
2023-01-11T16:54:51.149Z,2.70
2023-01-11T16:57:20.026Z,1.92
2023-01-11T17:00:01.693Z,2.47
2023-01-11T17:02:37.923Z,2.13
2023-01-11T17:05:18.089Z,1.90
2023-01-11T17:07:46.604Z,1.40
2023-01-11T17:10:21.307Z,2.08
2023-01-11T17:13:28.975Z,2.10
2023-01-11T17:18:25.725Z,2.63
2023-01-11T17:20:53.419Z,1.98
2023-01-11T17:23:21.757Z,2.63
2023-01-11T17:25:55.381Z,1.73
2023-01-11T17:28:26.036Z,2.58
2023-01-11T17:30:53.737Z,1.75
2023-01-11T17:33:29.582Z,2.13
2023-01-11T17:35:57.086Z,2.20
2023-01-11T17:38:26.672Z,3.50
2023-01-11T17:40:57.287Z,1.90
2023-01-11T17:43:46.112Z,1.40
2023-01-11T17:46:18.380Z,1.15
2023-01-11T17:48:53.426Z,0.77
2023-01-11T17:51:25.625Z,0.73
2023-01-11T17:53:52.896Z,0.82
2023-01-11T17:56:38.067Z,1.05
2023-01-11T17:59:16.758Z,0.60
2023-01-11T18:01:48.110Z,1.05
2023-01-11T18:04:19.799Z,0.60
2023-01-11T18:09:26.327Z,0.80
2023-01-11T18:11:54.256Z,0.70
2023-01-11T18:14:30.989Z,0.82
2023-01-11T18:16:59.884Z,0.98
2023-01-11T18:19:35.188Z,1.27
2023-01-11T18:22:02.043Z,0.98
2023-01-11T18:24:34.560Z,0.75
2023-01-11T18:27:46.373Z,0.82
2023-01-11T18:30:37.541Z,1.38
2023-01-11T18:33:11.396Z,0.85
2023-01-11T18:35:43.796Z,0.60
2023-01-11T18:38:14.916Z,0.35
2023-01-11T18:40:41.652Z,1.00
2023-01-11T18:43:09.659Z,1.23
2023-01-11T18:45:37.834Z,0.77
2023-01-11T18:48:10.669Z,0.88
2023-01-11T18:50:39.202Z,1.00
2023-01-11T18:53:05.924Z,0.93
2023-01-11T18:55:32.782Z,1.17
2023-01-11T18:57:59.538Z,0.65
2023-01-11T19:00:26.345Z,1.00
2023-01-11T19:02:54.765Z,0.82
2023-01-11T19:05:21.875Z,0.93
2023-01-11T19:07:49.461Z,1.00
2023-01-11T19:10:18.070Z,0.68
2023-01-11T19:12:45.169Z,0.80
2023-01-11T19:15:12.824Z,0.82
2023-01-11T19:17:39.896Z,1.33
2023-01-11T19:20:11.003Z,0.90
2023-01-11T19:22:38.039Z,1.15
2023-01-11T19:25:06.695Z,1.20
2023-01-11T19:27:33.599Z,0.73
2023-01-11T19:30:00.262Z,1.10
2023-01-11T19:32:27.207Z,0.93
2023-01-11T19:34:57.929Z,0.98
2023-01-11T19:37:27.136Z,0.93
2023-01-11T19:39:56.422Z,1.48
2023-01-11T19:42:24.096Z,0.95
2023-01-11T19:44:51.471Z,0.90
2023-01-11T19:47:18.891Z,0.85
2023-01-11T19:49:46.171Z,1.05
2023-01-11T19:52:19.166Z,1.10
2023-01-11T19:54:48.646Z,0.85
2023-01-11T19:57:20.463Z,0.80
2023-01-11T19:59:48.067Z,0.85
2023-01-11T20:02:17.406Z,0.85
2023-01-11T20:04:44.759Z,0.77
2023-01-11T20:07:13.406Z,1.10
2023-01-11T20:09:41.919Z,0.57
2023-01-11T20:12:12.680Z,0.40
2023-01-11T20:14:40.727Z,1.40
2023-01-11T20:17:08.123Z,1.33
2023-01-11T20:19:35.976Z,0.88
2023-01-11T20:22:03.266Z,0.77
2023-01-11T20:24:30.454Z,0.90
2023-01-11T20:27:00.925Z,0.95
2023-01-11T20:29:29.372Z,1.10
2023-01-11T20:31:58.254Z,0.70
2023-01-11T20:34:33.897Z,0.70
2023-01-11T20:37:00.972Z,0.95
2023-01-11T20:39:27.989Z,0.90
2023-01-11T20:41:56.929Z,0.77
2023-01-11T20:44:32.163Z,0.95
2023-01-11T20:47:01.140Z,1.77
2023-01-11T20:49:30.280Z,0.95
2023-01-11T20:51:59.131Z,1.20
2023-01-11T20:54:26.835Z,0.98
2023-01-11T20:56:53.984Z,1.25
2023-01-11T20:59:21.935Z,1.02
2023-01-11T21:01:50.017Z,0.75
2023-01-11T21:04:18.394Z,1.35
2023-01-11T21:06:46.552Z,1.38
2023-01-11T21:09:15.330Z,1.30
2023-01-11T21:11:42.205Z,1.25
2023-01-11T21:14:11.964Z,1.30
2023-01-11T21:16:40.931Z,1.33
2023-01-11T21:19:07.749Z,1.02
2023-01-11T21:21:35.802Z,0.93
2023-01-11T21:24:04.881Z,1.23
2023-01-11T21:26:32.467Z,1.10
2023-01-11T21:29:01.189Z,0.60
2023-01-11T21:31:29.869Z,1.05
2023-01-11T21:33:58.676Z,0.93
2023-01-11T21:36:27.009Z,0.90
2023-01-11T21:38:56.700Z,1.02
2023-01-11T21:41:43.914Z,0.90
2023-01-11T21:44:11.795Z,0.70
2023-01-11T21:46:39.444Z,0.93
2023-01-11T21:49:07.519Z,1.20
2023-01-11T21:51:34.646Z,1.48
2023-01-11T21:54:08.722Z,1.05
2023-01-11T21:56:35.990Z,1.10
2023-01-11T21:59:03.442Z,1.15
2023-01-11T22:01:30.434Z,1.20
2023-01-11T22:03:57.483Z,0.95
2023-01-11T22:06:24.466Z,0.80
2023-01-11T22:08:51.418Z,1.02
2023-01-11T22:11:19.610Z,1.02
2023-01-11T22:13:46.454Z,1.02
2023-01-11T22:16:15.092Z,0.90
2023-01-11T22:18:42.758Z,1.23
2023-01-11T22:21:11.692Z,1.20
2023-01-11T22:23:38.672Z,0.73
2023-01-11T22:26:06.729Z,0.70
2023-01-11T22:28:57.669Z,1.27
2023-01-11T22:31:27.373Z,0.85
2023-01-11T22:33:54.573Z,1.00
2023-01-11T22:36:24.060Z,0.90
2023-01-11T22:38:51.347Z,0.75
2023-01-11T22:41:18.312Z,0.70
2023-01-11T22:43:47.070Z,0.70
2023-01-11T22:46:15.858Z,1.10
2023-01-11T22:48:44.036Z,1.02
2023-01-11T22:51:11.856Z,1.15
2023-01-11T22:53:40.984Z,0.95
2023-01-11T22:56:08.973Z,1.15
2023-01-11T22:58:36.208Z,0.98
2023-01-11T23:01:11.890Z,0.88
2023-01-11T23:03:38.969Z,0.70
2023-01-11T23:06:06.314Z,0.73
2023-01-11T23:08:35.742Z,0.77
2023-01-11T23:11:02.474Z,0.40
2023-01-11T23:13:47.616Z,0.82
2023-01-11T23:16:15.730Z,0.55
2023-01-11T23:18:44.257Z,0.60
2023-01-11T23:21:12.985Z,0.30
2023-01-11T23:23:39.764Z,0.60
2023-01-11T23:26:07.410Z,0.40
2023-01-11T23:28:34.385Z,0.43
2023-01-11T23:31:09.491Z,0.50
2023-01-11T23:33:37.802Z,0.40
2023-01-11T23:36:05.338Z,0.38
2023-01-11T23:38:32.851Z,0.43
2023-01-11T23:41:23.713Z,0.40
2023-01-11T23:43:50.666Z,1.13
2023-01-11T23:46:36.498Z,0.28
2023-01-11T23:49:06.082Z,0.38
2023-01-11T23:51:33.711Z,0.40
2023-01-11T23:54:01.147Z,0.20
2023-01-11T23:56:28.876Z,0.40
2023-01-11T23:58:56.046Z,0.57
